Bridger, MT

3:54 AM MST on November 22, 2014 (GMT -0700)
Bearpaw Ranch | Change Station
CLOSE
Current Station
Personal Weather Station
Location: Columbus, MT
Elevation: 4577 ft
Nearby Weather Stations

Elev 4577 ft 45.55 °N, 109.22 °W | Updated 2 minutes ago

Partly Cloudy
Partly Cloudy
43.1 °F
Feels Like 39 °F
N
7.0
Wind Variable Wind from SSE
Gusts 11.0 mph

Today
High -- | Low -- °F
--% Chance of Precip.
Yesterday
High -- | Low -- °F
Precip. -- in
7:23 AM 4:39 PM
Waning Crescent, 0% visible
Pressure 29.52 in
Visibility 10.0 miles
Clouds Mostly Cloudy 11000 ft
Overcast 15000 ft
Windchill 39 °F
Dew Point 27 °F
Humidity 53%
Rainfall 0.00 in
Snow Depth Not available.
UV 0 out of 12
Pollen .10 out of 12
Air Quality Not available.
Flu Activity Not available.
METAR KBIL 220953Z 24014KT 10SM BKN110 OVC150 04/M04 A2950 RMK AO2 SLP997 T00441044

More Conditions Fewer Conditions

Pressure 29.52 in
Visibility 10.0 miles
Clouds Mostly Cloudy 11000 ft
Overcast 15000 ft
Windchill 39 °F
Dew Point 27 °F
Humidity 53%
Rainfall 0.00 in
Snow Depth Not available.
UV 0 out of 12
Pollen .10 out of 12
Air Quality Not available.
Flu Activity Not available.
METAR KBIL 220953Z 24014KT 10SM BKN110 OVC150 04/M04 A2950 RMK AO2 SLP997 T00441044

More Conditions Fewer Conditions

10-Day Weather Forecast

Almanac

Astronomy

Nov. 22, 2014 Rise Set
Actual Time
Civil Twilight
Nautical Twilight
Astronomical Twilight
Moon
Length of Visible Light
Length of Day
Tomorrow will be .
, % of the Moon is Illuminated

Today's Extremes

State Highs State Lows

Community

WunderPhotos

Upload Photos

1,772,805 photos uploaded!

WunderBlogs® & News

Nearby

Air Quality

  Air Quality AQ Index Pollutant
Not available.

Snow Depth

Station Depth Elevation

Earthquake Activity

City Distance Mag. Time & Date
Minimum magnitude displayed is 2.5.

Coastal Water Temperatures

Place Temperature

Nearby Weather Stations